Latest Weather Observations for Wangaratta

IDV60801

Issued at 3:05 pm EST Wednesday 17 September 2014 (issued every 30 minutes, with the page automatically refreshed every 10 minutes)

About weather observations | Map of weather stations | Latest weather observations for VIC | Other Formats
Station Details ID: 082138 Name: WANGARATTA AERO Lat: -36.42 Lon: 146.31 Height: 152.6 m
Data from the previous 72 hours. | See also: Recent months at Wangaratta
Date/Time
EST
Temp
°C
App
Temp
°C
Dew
Point
Rel
Hum
%
Delta-T
°C
Wind Press
QNH
hPa
Press
MSL
hPa
Rain
since 9 am
mm
Dir
 
Spd
km/h
Gust
km/h
Spd
kts
Gust
kts
17/03:00pm 15.4 8.7 3.9 46 5.3 WSW 28 43 15 23 1013.7 1013.8 0.0
17/02:45pm 15.0 8.1 2.5 43 5.6 WSW 28 46 15 25 1013.6 1013.7 0.0
17/02:30pm 14.5 6.6 2.4 44 5.4 SW 33 43 18 23 1013.8 1013.9 0.0
17/02:00pm 15.2 9.4 4.3 48 5.1 W 24 39 13 21 1013.7 1013.8 0.0
17/01:30pm 14.8 7.9 4.5 50 4.8 W 30 43 16 23 1013.8 1013.9 0.0
17/01:00pm 14.8 7.6 5.1 52 4.6 W 32 44 17 24 1013.8 1013.9 0.0
17/12:30pm 14.9 10.0 7.0 59 3.9 W 22 30 12 16 1013.9 1014.0 0.0
17/12:00pm 14.2 9.6 6.6 60 3.7 W 20 28 11 15 1014.1 1014.2 0.0
17/11:30am 13.6 8.7 6.9 64 3.3 W 22 33 12 18 1014.4 1014.5 0.0
17/11:00am 13.2 8.2 6.5 64 3.2 WSW 22 30 12 16 1014.5 1014.6 0.0
17/10:30am 12.1 7.4 6.2 67 2.8 W 20 26 11 14 1014.6 1014.7 0.0
17/10:00am 12.3 8.1 7.4 72 2.4 WSW 19 24 10 13 1014.9 1015.0 0.0
17/09:30am 11.0 7.6 7.5 79 1.7 W 15 17 8 9 1015.1 1015.2 0.0
17/09:00am 10.9 8.6 7.4 79 1.7 WSW 9 15 5 8 1015.1 1015.2 0.0
17/08:30am 9.3 7.2 6.7 84 1.2 ENE 7 9 4 5 1015.0 1015.1 -
17/08:00am 9.0 7.0 6.3 83 1.3 NNW 6 7 3 4 1014.7 1014.8 -
17/07:30am 7.5 6.2 6.1 91 0.6 SSE 2 7 1 4 1014.7 1014.8 -
17/07:00am 5.9 4.8 5.0 94 0.4 CALM 0 7 0 4 1014.4 1014.5 -
17/06:30am 5.6 3.0 4.4 92 0.5 E 7 7 4 4 1014.1 1014.2 -
17/06:00am 6.0 3.5 4.5 90 0.7 E 7 9 4 5 1014.1 1014.2 -
17/05:30am 7.2 3.3 5.3 88 0.8 W 15 20 8 11 1014.0 1014.1 -
17/05:00am 7.6 3.4 5.9 89 0.8 W 17 22 9 12 1013.7 1013.8 -
17/04:30am 6.9 5.9 5.7 92 0.5 CALM 0 0 0 0 1013.4 1013.5 -
17/04:00am 6.7 4.5 5.5 92 0.5 NNW 6 7 3 4 1013.1 1013.2 -
17/03:30am 7.5 5.3 5.5 87 0.9 NNW 6 7 3 4 1012.8 1012.9 -
17/03:00am 7.4 5.3 6.0 91 0.6 NNW 6 7 3 4 1012.9 1013.0 0.0
17/02:30am 6.2 3.4 5.0 92 0.5 W 9 11 5 6 1012.8 1012.9 -
17/02:00am 6.7 4.3 5.3 91 0.6 WNW 7 9 4 5 1012.8 1012.9 -
17/01:30am 8.4 7.6 6.7 89 0.8 CALM 0 0 0 0 1012.7 1012.8 -
17/01:00am 8.2 5.7 6.5 89 0.8 SW 9 11 5 6 1012.8 1012.9 -
17/12:30am 8.6 5.7 6.4 86 1.0 SW 11 15 6 8 1012.8 1012.9 -
17/12:00am 9.6 6.4 7.0 84 1.2 WSW 13 17 7 9 1012.9 1013.0 -
 
Date/Time
EST
Temp
°C
App
Temp
°C
Dew
Point
Rel
Hum
%
Delta-T
°C
Wind Press
QNH
hPa
Press
MSL
hPa
Rain
since 9 am
mm
Dir
 
Spd
km/h
Gust
km/h
Spd
kts
Gust
kts
16/11:30pm 9.8 7.1 7.4 85 1.2 SW 11 17 6 9 1013.0 1013.1 -
16/11:00pm 9.7 7.3 6.8 82 1.4 NNW 9 15 5 8 1013.1 1013.2 -
16/10:30pm 10.8 8.3 8.0 83 1.4 WNW 11 17 6 9 1013.0 1013.1 -
16/10:00pm 11.4 8.6 8.4 82 1.5 W 13 19 7 10 1012.8 1012.9 -
16/09:30pm 11.0 8.2 8.4 84 1.3 SW 13 19 7 10 1012.6 1012.7 -
16/09:00pm 11.7 7.7 8.2 79 1.7 SW 19 26 10 14 1012.3 1012.4 0.0
16/08:30pm 11.9 7.9 8.2 78 1.8 SW 19 28 10 15 1012.1 1012.1 -
16/08:00pm 12.5 8.5 8.4 76 2.1 SW 19 26 10 14 1011.7 1011.7 -
16/07:30pm 13.0 7.7 8.5 74 2.3 SW 26 39 14 21 1011.3 1011.4 -
16/07:00pm 13.0 8.2 8.7 75 2.2 SW 24 33 13 18 1010.8 1010.9 -
16/06:30pm 13.9 7.4 8.9 72 2.5 WSW 33 44 18 24 1010.4 1010.5 -
16/06:29pm 13.9 7.4 9.1 73 2.5 WSW 33 44 18 24 1010.4 1010.5 -
16/06:00pm 14.1 12.0 11.1 82 1.6 WSW 13 17 7 9 1009.8 1009.9 -
16/05:30pm 14.5 12.5 11.6 83 1.6 W 13 19 7 10 1009.4 1009.5 -
16/05:00pm 15.3 15.6 10.9 75 2.4 CALM 0 0 0 0 1009.1 1009.2 -
16/04:30pm 16.1 15.9 10.6 70 2.9 NW 2 6 1 3 1008.8 1008.9 -
16/04:00pm 15.3 14.3 10.9 75 2.4 NW 7 11 4 6 1008.8 1008.9 -
16/03:30pm 15.7 14.5 11.5 76 2.3 NNW 9 13 5 7 1008.5 1008.6 -
16/03:00pm 16.6 14.8 10.9 69 3.1 NNW 11 17 6 9 1008.2 - 0.0
16/02:30pm 16.3 13.7 10.6 69 3.1 NW 15 22 8 12 1008.3 1008.4 0.0
16/02:00pm 16.1 12.7 10.6 70 2.9 WNW 19 22 10 12 1008.2 1008.3 0.0
16/01:30pm 15.7 12.9 11.3 75 2.4 W 17 22 9 12 1008.4 1008.5 0.0
16/01:00pm 15.6 13.3 10.4 71 2.8 N 13 17 7 9 1008.4 1008.5 0.0
16/12:30pm 15.9 14.0 10.4 70 2.9 N 11 24 6 13 1008.5 1008.6 0.0
16/12:00pm 14.7 11.8 9.7 72 2.6 N 15 22 8 12 1008.8 1008.9 0.0
16/11:30am 14.1 10.7 9.3 73 2.5 N 17 20 9 11 1008.8 1008.9 0.0
16/11:00am 14.4 12.0 10.2 76 2.2 NNE 13 17 7 9 1008.8 1008.9 0.0
16/10:30am 13.3 10.7 9.2 76 2.1 NNE 13 19 7 10 1008.9 1009.0 0.0
16/10:00am 12.8 9.3 8.7 76 2.1 NNE 17 20 9 11 1009.0 1009.1 0.0
16/09:30am 12.5 9.3 8.4 76 2.0 N 15 19 8 10 1009.0 1009.1 0.0
16/09:00am 13.0 10.5 8.1 72 2.4 NNE 11 17 6 9 1008.7 1008.8 0.0
16/08:30am 12.8 9.0 7.5 70 2.6 N 17 22 9 12 1008.4 1008.5 0.0
16/08:00am 12.8 9.0 7.7 71 2.5 N 17 22 9 12 1008.0 1008.1 0.0
16/07:30am 9.4 7.9 8.5 94 0.4 NNW 6 9 3 5 1007.6 1007.7 0.0
16/07:00am 6.2 5.1 5.3 94 0.4 CALM 0 0 0 0 1007.2 1007.3 0.0
16/06:30am 6.1 5.0 5.2 94 0.4 CALM 0 0 0 0 1006.9 1007.0 0.0
16/06:00am 5.8 4.3 5.1 95 0.3 WNW 2 7 1 4 1006.9 1007.0 0.0
16/05:30am 5.8 4.6 4.8 93 0.4 CALM 0 2 0 1 1006.6 1006.6 0.0
16/05:00am 6.7 4.6 5.7 93 0.5 S 6 7 3 4 1006.3 1006.3 0.0
16/04:30am 6.9 5.2 5.7 92 0.5 WSW 4 7 2 4 1006.3 1006.3 0.0
16/04:00am 7.9 6.0 6.8 93 0.5 SSW 6 7 3 4 1006.1 1006.1 0.0
16/03:30am 7.5 5.4 5.8 89 0.8 S 6 7 3 4 1006.0 1006.0 0.0
16/03:00am 7.6 5.3 5.9 89 0.8 SSW 7 11 4 6 1006.2 1006.2 0.0
16/02:30am 7.9 5.3 6.0 88 0.9 SW 9 11 5 6 1006.3 1006.3 0.0
16/02:00am 9.5 8.0 6.8 83 1.3 S 4 7 2 4 1006.3 1006.3 0.0
16/01:30am 9.7 7.3 7.1 84 1.2 SSW 9 11 5 6 1006.9 1007.0 0.0
16/01:00am 9.6 7.7 7.4 86 1.1 S 7 9 4 5 1007.4 1007.5 0.0
16/12:30am 10.2 7.7 8.0 86 1.1 SW 11 13 6 7 1007.6 1007.7 0.0
16/12:00am 10.5 8.5 8.6 88 0.9 SW 9 11 5 6 1007.9 1008.0 0.0
 
Date/Time
EST
Temp
°C
App
Temp
°C
Dew
Point
Rel
Hum
%
Delta-T
°C
Wind Press
QNH
hPa
Press
MSL
hPa
Rain
since 9 am
mm
Dir
 
Spd
km/h
Gust
km/h
Spd
kts
Gust
kts
15/11:30pm 11.5 9.8 8.2 80 1.6 WSW 7 9 4 5 1008.3 1008.4 0.0
15/11:00pm 13.2 11.2 8.7 74 2.3 SE 9 13 5 7 1008.4 1008.5 0.0
15/10:30pm 12.0 10.2 9.6 85 1.2 SSW 9 11 5 6 1009.2 1009.3 0.0
15/10:00pm 11.9 10.5 9.6 86 1.2 S 7 9 4 5 1009.4 1009.5 0.0
15/09:30pm 12.3 11.0 10.0 86 1.2 WSW 7 9 4 5 1009.7 1009.8 0.0
15/09:00pm 11.8 10.4 9.5 86 1.2 SSW 7 9 4 5 1009.7 1009.8 0.0
15/08:30pm 11.8 10.1 10.0 89 0.9 SW 9 9 5 5 1010.2 1010.3 0.0
15/08:00pm 11.6 10.3 9.9 89 0.9 SSW 7 9 4 5 1010.3 1010.4 0.0
15/07:30pm 12.0 10.5 9.2 83 1.4 S 7 9 4 5 1010.3 1010.4 0.0
15/07:00pm 13.3 12.8 9.4 77 2.0 SSW 2 7 1 4 1010.4 1010.5 0.0
15/06:30pm 15.6 14.1 8.6 63 3.6 ESE 6 9 3 5 1010.3 1010.4 0.0
15/06:00pm 16.2 14.1 8.4 60 4.0 ESE 9 13 5 7 1010.2 1010.3 0.0
15/05:30pm 16.8 15.1 9.7 63 3.7 ESE 9 11 5 6 1010.5 1010.6 0.0
15/05:00pm 17.0 16.3 11.3 69 3.1 SE 6 9 3 5 1010.8 1010.9 0.0
15/04:30pm 17.8 16.4 9.4 58 4.4 NNE 7 9 4 5 1011.0 1011.1 0.0
15/04:00pm 18.4 17.0 9.7 57 4.6 NNE 7 11 4 6 1011.0 1011.1 0.0
15/03:30pm 18.6 16.1 9.7 56 4.7 NNE 13 19 7 10 1011.3 1011.4 0.0
15/03:00pm 18.8 16.9 9.0 53 5.2 ENE 9 11 5 6 1011.5 1011.6 0.0
15/02:30pm 18.6 16.1 8.3 51 5.3 N 11 15 6 8 1012.3 1012.4 0.0
15/02:00pm 19.3 15.2 6.4 43 6.5 NNE 17 20 9 11 1012.5 1012.6 0.0
15/01:30pm 20.1 16.5 6.8 42 6.8 NNE 15 24 8 13 1012.8 1012.9 0.0
15/01:00pm 18.8 16.4 8.7 52 5.3 NE 11 17 6 9 1013.2 1013.3 0.0
15/12:30pm 18.6 16.2 8.6 52 5.2 NNE 11 15 6 8 1013.7 1013.8 0.0
15/12:00pm 18.2 16.6 8.7 54 5.0 ENE 7 13 4 7 1014.3 1014.4 0.0
15/11:30am 17.5 16.0 9.2 58 4.4 E 7 11 4 6 1014.9 1015.0 0.0
15/11:00am 16.7 15.3 9.6 63 3.7 ESE 7 9 4 5 1015.5 1015.6 0.0
15/10:30am 15.1 14.6 9.2 68 3.0 SE 2 11 1 6 1016.1 1016.2 0.0
15/10:00am 13.4 11.8 8.7 73 2.4 SE 7 11 4 6 1016.6 1016.7 0.0
15/09:30am 12.7 10.5 7.8 72 2.4 SE 9 11 5 6 1016.9 1017.0 0.0
15/09:00am 11.3 9.5 8.0 80 1.6 SSE 7 9 4 5 1017.2 1017.3 0.0
15/08:30am 10.2 8.2 7.1 81 1.5 SE 7 9 4 5 1017.4 1017.5 0.0
15/08:00am 8.5 6.9 7.9 96 0.3 SSW 6 9 3 5 1017.4 1017.5 0.0
15/07:30am 7.0 5.1 6.9 99 0.0 S 6 7 3 4 1017.1 1017.2 0.0
15/07:00am 5.4 4.0 5.3 99 0.0 S 2 7 1 4 1017.2 1017.3 0.0
15/06:30am 5.4 4.3 5.3 99 0.0 CALM 0 6 0 3 1016.9 1017.0 0.0
15/06:00am 5.4 4.3 5.3 99 0.0 CALM 0 0 0 0 1016.8 1016.9 0.0
15/05:30am 5.1 2.8 5.0 99 0.0 SSW 6 7 3 4 1016.9 1017.0 0.0
15/05:00am 4.6 3.4 4.5 99 0.0 CALM 0 0 0 0 1016.4 1016.5 0.0
15/04:30am 4.8 3.6 4.7 99 0.0 CALM 0 0 0 0 1016.6 1016.7 0.0
15/04:00am 4.7 3.5 4.6 99 0.0 CALM 0 0 0 0 1016.9 1017.0 0.0
15/03:30am 4.4 3.1 4.3 99 0.0 CALM 0 0 0 0 1016.9 1017.0 0.0
15/03:00am 5.2 3.3 5.1 99 0.0 WNW 4 7 2 4 1017.1 1017.2 0.0
15/02:30am 5.3 3.1 5.2 99 0.0 SSW 6 6 3 3 1017.5 1017.6 0.0
15/02:00am 4.9 3.7 4.8 99 0.0 CALM 0 0 0 0 1017.7 1017.9 0.0
15/01:30am 5.2 4.1 5.1 99 0.0 CALM 0 0 0 0 1017.7 1017.9 0.0
15/01:00am 4.8 2.9 4.7 99 0.0 S 4 7 2 4 1018.1 1018.3 0.0
15/12:30am 5.5 4.5 5.4 99 0.0 CALM 0 0 0 0 1018.1 1018.3 0.0
15/12:00am 5.5 4.5 5.4 99 0.0 CALM 0 0 0 0 1018.2 1018.4 0.0
 
Date/Time
EST
Temp
°C
App
Temp
°C
Dew
Point
Rel
Hum
%
Delta-T
°C
Wind Press
QNH
hPa
Press
MSL
hPa
Rain
since 9 am
mm
Dir
 
Spd
km/h
Gust
km/h
Spd
kts
Gust
kts
14/11:30pm 5.6 3.8 5.5 99 0.0 S 4 7 2 4 1018.3 1018.5 0.0
14/11:00pm 6.5 4.5 6.2 98 0.1 SSW 6 7 3 4 1018.5 1018.6 0.0
14/10:30pm 6.9 4.8 6.6 98 0.1 SW 7 7 4 4 1018.5 1018.6 0.0
14/10:00pm 6.9 4.3 6.3 96 0.3 SSW 9 11 5 6 1018.6 1018.7 0.0
14/09:30pm 7.5 5.5 6.9 96 0.3 SSW 7 9 4 5 1018.6 1018.7 0.0
14/09:00pm 7.0 4.7 5.9 93 0.5 SW 7 11 4 6 1018.6 1018.7 0.0
14/08:30pm 8.3 7.6 6.9 91 0.7 CALM 0 0 0 0 1018.6 1018.7 0.0
14/08:00pm 9.8 9.1 7.1 83 1.3 CALM 0 0 0 0 1018.6 1018.7 0.0
14/07:30pm 10.9 10.3 7.6 80 1.6 CALM 0 0 0 0 1018.6 1018.7 0.0
14/07:00pm 11.5 11.0 7.8 78 1.8 CALM 0 2 0 1 1018.5 1018.6 0.0
14/06:30pm 13.1 11.1 7.3 68 2.8 WNW 7 7 4 4 1018.3 1018.5 0.0
14/06:00pm 14.2 12.0 7.7 65 3.2 WNW 9 11 5 6 1018.1 1018.3 0.0
14/05:30pm 16.9 15.3 8.6 58 4.3 W 7 9 4 5 1018.1 1018.3 0.0
14/05:00pm 18.1 15.7 8.7 54 4.9 W 11 15 6 8 1018.1 1018.3 0.0
14/04:30pm 18.6 16.2 7.1 47 5.8 WNW 9 13 5 7 1018.1 1018.3 0.0
14/04:00pm 18.8 16.5 7.6 48 5.7 W 9 11 5 6 1018.2 1018.4 0.0
14/03:30pm 18.4 15.8 7.8 50 5.4 WSW 11 15 6 8 1018.5 1018.6 0.0

Other Formats:

Comma delimited format used in spreadsheet applications
http://www.bom.gov.au/fwo/IDV60801/IDV60801.94889.axf

JavaScript Object Notation format (JSON) in row-major order
http://www.bom.gov.au/fwo/IDV60801/IDV60801.94889.json